Carlos Rovirosa Pérez International Airport
MMVA : now visible

Airfield :











YOU CAN JOIN US ON...

 
LOGIN :

Register | Disclaimer

   EN    FR    IT 

 









Legend :    VFR   Marginal VFR   IFR   Intensive IFR   Very Intensive IFR
Visi :
Ceiling :
>= 8 km
>= 3000ft
5 to 8 km
1000 to 3000 ft
1500m to 5 km
500 to 1000 ft
800 to 1500m
200 to 500 ft
< 800m
< 200 ft
Symbols :   Thunderstorms  Fog  Heavy snow  Heavy precipitations  Wind > 20 kt






- Airport Elevation : 46 ft
- IATA code : VSA


MMVA - Carlos Rovirosa Pérez International

CURRENT METAR :
  • 070040Z 33005KT 4SM SCT200 27/25 A2986 RMK 8/001 HZY

EXPIRED METARs :
  • 062340Z 34006KT 4SM SCT200 30/23 A2984 RMK SLP102 57003 913 8/001 HZY
  • 062240Z 36010KT 4SM SKC 31/24 A2983 RMK HZY

TAF TAF MMVA
Valid from the 06 at 18:00 until the 07 at 18:00 UTC


061721Z 0618/0718 35005KT 5SM HZ BKN015
FM070000 35015KT 6SM HZ BKN020
TEMPO 0710/0714 3SM BR BKN003



MET'MAP, your aeronautical weather chart ! - Copyright ORBIFLY December 2007 - Disclaimer

ORBIFLY MET'MAP TEAM :

Programming & Development : Alexandra Zaïnal
Concept & original design : Baudouin d'Aumeries
Assistance for programming : Marc-Olivier Méhu
Technical & hardware support : Manuel Goepfert

Contact : metmap@orbifly.com




SOURCES & CREDITS :

   NOAA       Earth
Advisory